sensor_id;sensor_type;location;lat;lon;timestamp;pressure;altitude;pressure_sealevel;temperature;humidity
19827;BME280;10074;52.018;4.726;2023-03-20T00:04:50;46263.38;;;-144.79;100.00
19827;BME280;10074;52.018;4.726;2023-03-20T00:09:50;46259.34;;;-144.79;100.00
19827;BME280;10074;52.018;4.726;2023-03-20T00:14:51;46259.34;;;-144.79;100.00
19827;BME280;10074;52.018;4.726;2023-03-20T00:19:51;46267.38;;;-144.79;100.00
19827;BME280;10074;52.018;4.726;2023-03-20T00:24:51;46267.38;;;-144.79;100.00
19827;BME280;10074;52.018;4.726;2023-03-20T00:29:53;46267.38;;;-144.79;100.00
19827;BME280;10074;52.018;4.726;2023-03-20T00:34:54;46263.38;;;-144.79;100.00
19827;BME280;10074;52.018;4.726;2023-03-20T00:39:54;46255.34;;;-144.79;100.00
19827;BME280;10074;52.018;4.726;2023-03-20T00:44:55;46259.34;;;-144.79;100.00
19827;BME280;10074;52.018;4.726;2023-03-20T00:49:58;46259.34;;;-144.79;100.00
19827;BME280;10074;52.018;4.726;2023-03-20T00:54:59;46259.34;;;-144.79;100.00
19827;BME280;10074;52.018;4.726;2023-03-20T01:00:12;46267.38;;;-144.79;100.00
19827;BME280;10074;52.018;4.726;2023-03-20T01:05:19;46269.38;;;-144.79;100.00
19827;BME280;10074;52.018;4.726;2023-03-20T01:10:20;46267.38;;;-144.79;100.00
19827;BME280;10074;52.018;4.726;2023-03-20T01:15:24;46267.38;;;-144.79;100.00
19827;BME280;10074;52.018;4.726;2023-03-20T01:20:28;46263.38;;;-144.79;100.00
19827;BME280;10074;52.018;4.726;2023-03-20T01:25:29;46261.34;;;-144.79;100.00
19827;BME280;10074;52.018;4.726;2023-03-20T01:30:31;46257.34;;;-144.79;100.00
19827;BME280;10074;52.018;4.726;2023-03-20T01:35:31;46259.34;;;-144.79;100.00
19827;BME280;10074;52.018;4.726;2023-03-20T01:40:53;46257.34;;;-144.79;100.00
19827;BME280;10074;52.018;4.726;2023-03-20T01:46:00;46267.38;;;-144.79;100.00
19827;BME280;10074;52.018;4.726;2023-03-20T01:51:02;46267.38;;;-144.79;100.00
19827;BME280;10074;52.018;4.726;2023-03-20T01:56:02;46265.38;;;-144.79;100.00
19827;BME280;10074;52.018;4.726;2023-03-20T02:01:05;46255.34;;;-144.79;100.00
19827;BME280;10074;52.018;4.726;2023-03-20T02:06:08;46267.38;;;-144.79;100.00
19827;BME280;10074;52.018;4.726;2023-03-20T02:11:09;46259.34;;;-144.79;100.00
19827;BME280;10074;52.018;4.726;2023-03-20T02:16:12;46261.34;;;-144.79;100.00
19827;BME280;10074;52.018;4.726;2023-03-20T02:33:07;46257.34;;;-144.79;100.00
19827;BME280;10074;52.018;4.726;2023-03-20T02:38:36;46263.38;;;-144.79;100.00
19827;BME280;10074;52.018;4.726;2023-03-20T02:54:04;46263.38;;;-144.79;100.00
19827;BME280;10074;52.018;4.726;2023-03-20T03:04:14;46259.34;;;-144.79;100.00
19827;BME280;10074;52.018;4.726;2023-03-20T03:09:24;46261.34;;;-144.79;100.00
19827;BME280;10074;52.018;4.726;2023-03-20T03:14:30;46267.38;;;-144.79;100.00
19827;BME280;10074;52.018;4.726;2023-03-20T03:19:34;46261.34;;;-144.79;100.00
19827;BME280;10074;52.018;4.726;2023-03-20T03:24:38;46263.38;;;-144.79;100.00
19827;BME280;10074;52.018;4.726;2023-03-20T03:29:42;46247.31;;;-144.79;100.00
19827;BME280;10074;52.018;4.726;2023-03-20T03:34:45;46257.34;;;-144.79;100.00
19827;BME280;10074;52.018;4.726;2023-03-20T03:40:04;46255.34;;;-144.79;100.00
19827;BME280;10074;52.018;4.726;2023-03-20T03:45:30;46267.38;;;-144.79;100.00
19827;BME280;10074;52.018;4.726;2023-03-20T03:50:42;46267.38;;;-144.79;100.00
19827;BME280;10074;52.018;4.726;2023-03-20T03:55:51;46257.34;;;-144.79;100.00
19827;BME280;10074;52.018;4.726;2023-03-20T04:00:54;46263.38;;;-144.79;100.00
19827;BME280;10074;52.018;4.726;2023-03-20T04:05:57;46255.34;;;-144.79;100.00
19827;BME280;10074;52.018;4.726;2023-03-20T04:10:58;46265.38;;;-144.79;100.00
19827;BME280;10074;52.018;4.726;2023-03-20T04:15:59;46259.34;;;-144.79;100.00
19827;BME280;10074;52.018;4.726;2023-03-20T04:20:59;46261.34;;;-144.79;100.00
19827;BME280;10074;52.018;4.726;2023-03-20T04:26:00;46263.38;;;-144.79;100.00
19827;BME280;10074;52.018;4.726;2023-03-20T04:31:02;46257.34;;;-144.79;100.00
19827;BME280;10074;52.018;4.726;2023-03-20T04:36:03;46263.38;;;-144.79;100.00
19827;BME280;10074;52.018;4.726;2023-03-20T04:41:03;46257.34;;;-144.79;100.00
19827;BME280;10074;52.018;4.726;2023-03-20T04:46:04;46259.34;;;-144.79;100.00
19827;BME280;10074;52.018;4.726;2023-03-20T04:51:05;46259.34;;;-144.79;100.00
19827;BME280;10074;52.018;4.726;2023-03-20T04:56:06;46251.34;;;-144.79;100.00
19827;BME280;10074;52.018;4.726;2023-03-20T05:01:07;46263.38;;;-144.79;100.00
19827;BME280;10074;52.018;4.726;2023-03-20T05:06:08;46259.34;;;-144.79;100.00
19827;BME280;10074;52.018;4.726;2023-03-20T05:11:09;46267.38;;;-144.79;100.00
19827;BME280;10074;52.018;4.726;2023-03-20T05:16:09;46267.38;;;-144.79;100.00
19827;BME280;10074;52.018;4.726;2023-03-20T05:21:10;46259.34;;;-144.79;100.00
19827;BME280;10074;52.018;4.726;2023-03-20T05:26:10;46263.38;;;-144.79;100.00
19827;BME280;10074;52.018;4.726;2023-03-20T05:31:11;46263.38;;;-144.79;100.00
19827;BME280;10074;52.018;4.726;2023-03-20T05:36:11;46255.34;;;-144.79;100.00
19827;BME280;10074;52.018;4.726;2023-03-20T05:41:12;46259.34;;;-144.79;100.00
19827;BME280;10074;52.018;4.726;2023-03-20T05:46:12;46251.34;;;-144.79;100.00
19827;BME280;10074;52.018;4.726;2023-03-20T05:51:13;46261.34;;;-144.79;100.00
19827;BME280;10074;52.018;4.726;2023-03-20T05:56:13;46257.34;;;-144.79;100.00
19827;BME280;10074;52.018;4.726;2023-03-20T06:01:13;46261.34;;;-144.79;100.00
19827;BME280;10074;52.018;4.726;2023-03-20T06:06:17;46261.34;;;-144.79;100.00
19827;BME280;10074;52.018;4.726;2023-03-20T06:11:17;46259.34;;;-144.79;100.00
19827;BME280;10074;52.018;4.726;2023-03-20T06:16:17;46259.34;;;-144.79;100.00
19827;BME280;10074;52.018;4.726;2023-03-20T06:21:18;46255.34;;;-144.79;100.00
19827;BME280;10074;52.018;4.726;2023-03-20T06:26:18;46263.38;;;-144.79;100.00
19827;BME280;10074;52.018;4.726;2023-03-20T06:31:18;46261.34;;;-144.79;100.00
19827;BME280;10074;52.018;4.726;2023-03-20T06:36:19;46263.38;;;-144.79;100.00
19827;BME280;10074;52.018;4.726;2023-03-20T06:41:19;46255.34;;;-144.79;100.00
19827;BME280;10074;52.018;4.726;2023-03-20T06:46:20;46255.34;;;-144.79;100.00
19827;BME280;10074;52.018;4.726;2023-03-20T06:51:20;46263.38;;;-144.79;100.00
19827;BME280;10074;52.018;4.726;2023-03-20T06:56:21;46255.34;;;-144.79;100.00
19827;BME280;10074;52.018;4.726;2023-03-20T07:01:21;46259.34;;;-144.79;100.00
19827;BME280;10074;52.018;4.726;2023-03-20T07:06:22;46263.38;;;-144.79;100.00
19827;BME280;10074;52.018;4.726;2023-03-20T07:11:23;46259.34;;;-144.79;100.00
19827;BME280;10074;52.018;4.726;2023-03-20T07:16:23;46261.34;;;-144.79;100.00
19827;BME280;10074;52.018;4.726;2023-03-20T07:21:23;46255.34;;;-144.79;100.00
19827;BME280;10074;52.018;4.726;2023-03-20T07:26:24;46255.34;;;-144.79;100.00
19827;BME280;10074;52.018;4.726;2023-03-20T07:31:26;46259.34;;;-144.79;100.00
19827;BME280;10074;52.018;4.726;2023-03-20T07:36:28;46263.38;;;-144.79;100.00
19827;BME280;10074;52.018;4.726;2023-03-20T07:41:29;46263.38;;;-144.79;100.00
19827;BME280;10074;52.018;4.726;2023-03-20T07:46:30;46251.34;;;-144.79;100.00
19827;BME280;10074;52.018;4.726;2023-03-20T07:51:30;46259.34;;;-144.79;100.00
19827;BME280;10074;52.018;4.726;2023-03-20T07:56:30;46255.34;;;-144.79;100.00
19827;BME280;10074;52.018;4.726;2023-03-20T08:01:31;46255.34;;;-144.79;100.00
19827;BME280;10074;52.018;4.726;2023-03-20T08:06:31;46253.34;;;-144.79;100.00
19827;BME280;10074;52.018;4.726;2023-03-20T08:11:31;46259.34;;;-144.79;100.00
19827;BME280;10074;52.018;4.726;2023-03-20T08:16:32;46251.34;;;-144.79;100.00
19827;BME280;10074;52.018;4.726;2023-03-20T08:21:32;46255.34;;;-144.79;100.00
19827;BME280;10074;52.018;4.726;2023-03-20T08:26:33;46255.34;;;-144.79;100.00
19827;BME280;10074;52.018;4.726;2023-03-20T08:31:33;46253.34;;;-144.79;100.00
19827;BME280;10074;52.018;4.726;2023-03-20T08:36:33;46247.31;;;-144.79;100.00
19827;BME280;10074;52.018;4.726;2023-03-20T08:41:36;46253.34;;;-144.79;100.00
19827;BME280;10074;52.018;4.726;2023-03-20T08:46:38;46261.34;;;-144.79;100.00
19827;BME280;10074;52.018;4.726;2023-03-20T08:51:39;46251.34;;;-144.79;100.00
19827;BME280;10074;52.018;4.726;2023-03-20T08:56:39;46251.34;;;-144.79;100.00
19827;BME280;10074;52.018;4.726;2023-03-20T09:01:40;46247.31;;;-144.79;100.00
19827;BME280;10074;52.018;4.726;2023-03-20T09:06:41;46259.34;;;-144.79;100.00
19827;BME280;10074;52.018;4.726;2023-03-20T09:11:41;46255.34;;;-144.79;100.00
19827;BME280;10074;52.018;4.726;2023-03-20T09:16:41;46237.31;;;-144.79;100.00
19827;BME280;10074;52.018;4.726;2023-03-20T09:21:42;46243.31;;;-144.79;100.00
19827;BME280;10074;52.018;4.726;2023-03-20T09:26:42;46251.34;;;-144.79;100.00
19827;BME280;10074;52.018;4.726;2023-03-20T09:31:43;46241.31;;;-144.79;100.00
19827;BME280;10074;52.018;4.726;2023-03-20T09:36:43;46243.31;;;-144.79;100.00
19827;BME280;10074;52.018;4.726;2023-03-20T09:41:47;46247.31;;;-144.79;100.00
19827;BME280;10074;52.018;4.726;2023-03-20T09:57:30;46235.28;;;-144.79;100.00
19827;BME280;10074;52.018;4.726;2023-03-20T10:03:00;46239.31;;;-144.79;100.00
19827;BME280;10074;52.018;4.726;2023-03-20T10:08:03;46239.31;;;-144.79;100.00
19827;BME280;10074;52.018;4.726;2023-03-20T10:18:37;46245.31;;;-144.79;100.00
19827;BME280;10074;52.018;4.726;2023-03-20T10:23:46;46239.31;;;-144.79;100.00
19827;BME280;10074;52.018;4.726;2023-03-20T10:28:59;46231.28;;;-144.79;100.00
19827;BME280;10074;52.018;4.726;2023-03-20T10:44:40;46239.31;;;-144.79;100.00
19827;BME280;10074;52.018;4.726;2023-03-20T10:49:45;46239.31;;;-144.79;100.00
19827;BME280;10074;52.018;4.726;2023-03-20T10:54:49;46235.28;;;-144.79;100.00
19827;BME280;10074;52.018;4.726;2023-03-20T10:59:56;46231.28;;;-144.79;100.00
19827;BME280;10074;52.018;4.726;2023-03-20T11:05:22;46239.31;;;-144.79;100.00
19827;BME280;10074;52.018;4.726;2023-03-20T11:10:25;46233.28;;;-144.79;100.00
19827;BME280;10074;52.018;4.726;2023-03-20T11:15:33;46243.31;;;-144.79;100.00
19827;BME280;10074;52.018;4.726;2023-03-20T11:20:37;46239.31;;;-144.79;100.00
19827;BME280;10074;52.018;4.726;2023-03-20T11:25:49;46249.34;;;-144.79;100.00
19827;BME280;10074;52.018;4.726;2023-03-20T11:31:01;46253.34;;;-144.79;100.00
19827;BME280;10074;52.018;4.726;2023-03-20T11:36:10;46241.31;;;-144.79;100.00
19827;BME280;10074;52.018;4.726;2023-03-20T11:46:43;46239.31;;;-144.79;100.00
19827;BME280;10074;52.018;4.726;2023-03-20T11:51:43;46241.31;;;-144.79;100.00
19827;BME280;10074;52.018;4.726;2023-03-20T11:56:57;46247.31;;;-144.79;100.00
19827;BME280;10074;52.018;4.726;2023-03-20T12:01:58;46245.31;;;-144.79;100.00
19827;BME280;10074;52.018;4.726;2023-03-20T12:07:05;46241.31;;;-144.79;100.00
19827;BME280;10074;52.018;4.726;2023-03-20T12:18:14;46245.31;;;-144.79;100.00
19827;BME280;10074;52.018;4.726;2023-03-20T12:23:35;46251.34;;;-144.79;100.00
19827;BME280;10074;52.018;4.726;2023-03-20T12:33:51;46251.34;;;-144.79;100.00
19827;BME280;10074;52.018;4.726;2023-03-20T12:38:53;46249.34;;;-144.79;100.00
19827;BME280;10074;52.018;4.726;2023-03-20T13:10:51;46243.31;;;-144.79;100.00
19827;BME280;10074;52.018;4.726;2023-03-20T13:16:13;46251.34;;;-144.79;100.00
19827;BME280;10074;52.018;4.726;2023-03-20T13:21:55;46251.34;;;-144.79;100.00
19827;BME280;10074;52.018;4.726;2023-03-20T13:37:41;46257.34;;;-144.79;100.00
19827;BME280;10074;52.018;4.726;2023-03-20T13:58:48;46243.31;;;-144.79;100.00
19827;BME280;10074;52.018;4.726;2023-03-20T14:03:52;46243.31;;;-144.79;100.00
19827;BME280;10074;52.018;4.726;2023-03-20T14:08:53;46249.34;;;-144.79;100.00
19827;BME280;10074;52.018;4.726;2023-03-20T14:13:59;46247.31;;;-144.79;100.00
19827;BME280;10074;52.018;4.726;2023-03-20T14:19:17;46249.34;;;-144.79;100.00
19827;BME280;10074;52.018;4.726;2023-03-20T14:24:19;46235.28;;;-144.79;100.00
19827;BME280;10074;52.018;4.726;2023-03-20T14:29:25;46249.34;;;-144.79;100.00
19827;BME280;10074;52.018;4.726;2023-03-20T14:40:23;46239.31;;;-144.79;100.00
19827;BME280;10074;52.018;4.726;2023-03-20T14:45:35;46251.34;;;-144.79;100.00
19827;BME280;10074;52.018;4.726;2023-03-20T14:50:52;46249.34;;;-144.79;100.00
19827;BME280;10074;52.018;4.726;2023-03-20T15:00:59;46243.31;;;-144.79;100.00
19827;BME280;10074;52.018;4.726;2023-03-20T15:06:05;46249.34;;;-144.79;100.00
19827;BME280;10074;52.018;4.726;2023-03-20T15:11:08;46251.34;;;-144.79;100.00
19827;BME280;10074;52.018;4.726;2023-03-20T15:16:12;46241.31;;;-144.79;100.00
19827;BME280;10074;52.018;4.726;2023-03-20T15:21:15;46247.31;;;-144.79;100.00
19827;BME280;10074;52.018;4.726;2023-03-20T15:26:18;46251.34;;;-144.79;100.00
19827;BME280;10074;52.018;4.726;2023-03-20T15:31:36;46249.34;;;-144.79;100.00
19827;BME280;10074;52.018;4.726;2023-03-20T15:36:38;46249.34;;;-144.79;100.00
19827;BME280;10074;52.018;4.726;2023-03-20T15:41:44;46257.34;;;-144.79;100.00
19827;BME280;10074;52.018;4.726;2023-03-20T15:51:57;46259.34;;;-144.79;100.00
19827;BME280;10074;52.018;4.726;2023-03-20T15:56:59;46255.34;;;-144.79;100.00
19827;BME280;10074;52.018;4.726;2023-03-20T16:02:01;46247.31;;;-144.79;100.00
19827;BME280;10074;52.018;4.726;2023-03-20T16:07:02;46255.34;;;-144.79;100.00
19827;BME280;10074;52.018;4.726;2023-03-20T16:12:14;46261.34;;;-144.79;100.00
19827;BME280;10074;52.018;4.726;2023-03-20T16:17:16;46255.34;;;-144.79;100.00
19827;BME280;10074;52.018;4.726;2023-03-20T16:22:26;46257.34;;;-144.79;100.00
19827;BME280;10074;52.018;4.726;2023-03-20T16:27:32;46253.34;;;-144.79;100.00
19827;BME280;10074;52.018;4.726;2023-03-20T16:32:38;46255.34;;;-144.79;100.00
19827;BME280;10074;52.018;4.726;2023-03-20T16:37:45;46249.34;;;-144.79;100.00
19827;BME280;10074;52.018;4.726;2023-03-20T16:42:48;46255.34;;;-144.79;100.00
19827;BME280;10074;52.018;4.726;2023-03-20T16:47:49;46251.34;;;-144.79;100.00
19827;BME280;10074;52.018;4.726;2023-03-20T16:52:55;46257.34;;;-144.79;100.00
19827;BME280;10074;52.018;4.726;2023-03-20T16:58:03;46259.34;;;-144.79;100.00
19827;BME280;10074;52.018;4.726;2023-03-20T17:03:13;46251.34;;;-144.79;100.00
19827;BME280;10074;52.018;4.726;2023-03-20T17:08:21;46261.34;;;-144.79;100.00
19827;BME280;10074;52.018;4.726;2023-03-20T17:13:21;46251.34;;;-144.79;100.00
19827;BME280;10074;52.018;4.726;2023-03-20T17:18:22;46259.34;;;-144.79;100.00
19827;BME280;10074;52.018;4.726;2023-03-20T17:23:22;46255.34;;;-144.79;100.00
19827;BME280;10074;52.018;4.726;2023-03-20T17:28:28;46249.34;;;-144.79;100.00
19827;BME280;10074;52.018;4.726;2023-03-20T17:33:31;46261.34;;;-144.79;100.00
19827;BME280;10074;52.018;4.726;2023-03-20T17:38:32;46251.34;;;-144.79;100.00
19827;BME280;10074;52.018;4.726;2023-03-20T17:43:33;46245.31;;;-144.79;100.00
19827;BME280;10074;52.018;4.726;2023-03-20T17:48:33;46255.34;;;-144.79;100.00
19827;BME280;10074;52.018;4.726;2023-03-20T17:53:34;46247.31;;;-144.79;100.00
19827;BME280;10074;52.018;4.726;2023-03-20T17:58:34;46251.34;;;-144.79;100.00
19827;BME280;10074;52.018;4.726;2023-03-20T18:03:34;46247.31;;;-144.79;100.00
19827;BME280;10074;52.018;4.726;2023-03-20T18:08:35;46259.34;;;-144.79;100.00
19827;BME280;10074;52.018;4.726;2023-03-20T18:13:37;46259.34;;;-144.79;100.00
19827;BME280;10074;52.018;4.726;2023-03-20T18:18:38;46255.34;;;-144.79;100.00
19827;BME280;10074;52.018;4.726;2023-03-20T18:23:38;46247.31;;;-144.79;100.00
19827;BME280;10074;52.018;4.726;2023-03-20T18:28:38;46251.34;;;-144.79;100.00
19827;BME280;10074;52.018;4.726;2023-03-20T18:33:39;46251.34;;;-144.79;100.00
19827;BME280;10074;52.018;4.726;2023-03-20T18:38:39;46259.34;;;-144.79;100.00
19827;BME280;10074;52.018;4.726;2023-03-20T18:43:40;46257.34;;;-144.79;100.00
19827;BME280;10074;52.018;4.726;2023-03-20T18:48:41;46255.34;;;-144.79;100.00
19827;BME280;10074;52.018;4.726;2023-03-20T18:53:42;46259.34;;;-144.79;100.00
19827;BME280;10074;52.018;4.726;2023-03-20T18:58:43;46257.34;;;-144.79;100.00
19827;BME280;10074;52.018;4.726;2023-03-20T19:03:44;46251.34;;;-144.79;100.00
19827;BME280;10074;52.018;4.726;2023-03-20T19:08:46;46259.34;;;-144.79;100.00
19827;BME280;10074;52.018;4.726;2023-03-20T19:13:52;46259.34;;;-144.79;100.00
19827;BME280;10074;52.018;4.726;2023-03-20T19:18:54;46259.34;;;-144.79;100.00
19827;BME280;10074;52.018;4.726;2023-03-20T19:24:05;46257.34;;;-144.79;100.00
19827;BME280;10074;52.018;4.726;2023-03-20T19:29:06;46257.34;;;-144.79;100.00
19827;BME280;10074;52.018;4.726;2023-03-20T19:34:08;46259.34;;;-144.79;100.00
19827;BME280;10074;52.018;4.726;2023-03-20T19:39:11;46251.34;;;-144.79;100.00
19827;BME280;10074;52.018;4.726;2023-03-20T19:44:13;46261.34;;;-144.79;100.00
19827;BME280;10074;52.018;4.726;2023-03-20T19:49:19;46255.34;;;-144.79;100.00
19827;BME280;10074;52.018;4.726;2023-03-20T19:54:19;46251.34;;;-144.79;100.00
19827;BME280;10074;52.018;4.726;2023-03-20T19:59:19;46255.34;;;-144.79;100.00
19827;BME280;10074;52.018;4.726;2023-03-20T20:04:20;46265.38;;;-144.79;100.00
19827;BME280;10074;52.018;4.726;2023-03-20T20:09:20;46259.34;;;-144.79;100.00
19827;BME280;10074;52.018;4.726;2023-03-20T20:14:20;46255.34;;;-144.79;100.00
19827;BME280;10074;52.018;4.726;2023-03-20T20:19:21;46263.38;;;-144.79;100.00
19827;BME280;10074;52.018;4.726;2023-03-20T20:24:21;46257.34;;;-144.79;100.00
19827;BME280;10074;52.018;4.726;2023-03-20T20:29:22;46257.34;;;-144.79;100.00
19827;BME280;10074;52.018;4.726;2023-03-20T20:34:25;46259.34;;;-144.79;100.00
19827;BME280;10074;52.018;4.726;2023-03-20T20:39:25;46251.34;;;-144.79;100.00
19827;BME280;10074;52.018;4.726;2023-03-20T20:44:26;46255.34;;;-144.79;100.00
19827;BME280;10074;52.018;4.726;2023-03-20T20:49:27;46261.34;;;-144.79;100.00
19827;BME280;10074;52.018;4.726;2023-03-20T20:54:27;46259.34;;;-144.79;100.00
19827;BME280;10074;52.018;4.726;2023-03-20T20:59:28;46259.34;;;-144.79;100.00
19827;BME280;10074;52.018;4.726;2023-03-20T21:04:28;46259.34;;;-144.79;100.00
19827;BME280;10074;52.018;4.726;2023-03-20T21:09:29;46255.34;;;-144.79;100.00
19827;BME280;10074;52.018;4.726;2023-03-20T21:14:29;46255.34;;;-144.79;100.00
19827;BME280;10074;52.018;4.726;2023-03-20T21:19:38;46269.38;;;-144.79;100.00
19827;BME280;10074;52.018;4.726;2023-03-20T21:24:38;46263.38;;;-144.79;100.00
19827;BME280;10074;52.018;4.726;2023-03-20T21:29:40;46255.34;;;-144.79;100.00
19827;BME280;10074;52.018;4.726;2023-03-20T21:34:42;46263.38;;;-144.79;100.00
19827;BME280;10074;52.018;4.726;2023-03-20T21:39:43;46267.38;;;-144.79;100.00
19827;BME280;10074;52.018;4.726;2023-03-20T21:44:43;46261.34;;;-144.79;100.00
19827;BME280;10074;52.018;4.726;2023-03-20T21:49:45;46261.34;;;-144.79;100.00
19827;BME280;10074;52.018;4.726;2023-03-20T21:54:45;46257.34;;;-144.79;100.00
19827;BME280;10074;52.018;4.726;2023-03-20T21:59:45;46257.34;;;-144.79;100.00
19827;BME280;10074;52.018;4.726;2023-03-20T22:04:46;46259.34;;;-144.79;100.00
19827;BME280;10074;52.018;4.726;2023-03-20T22:09:46;46263.38;;;-144.79;100.00
19827;BME280;10074;52.018;4.726;2023-03-20T22:14:47;46265.38;;;-144.79;100.00
19827;BME280;10074;52.018;4.726;2023-03-20T22:19:47;46255.34;;;-144.79;100.00
19827;BME280;10074;52.018;4.726;2023-03-20T22:24:47;46263.38;;;-144.79;100.00
19827;BME280;10074;52.018;4.726;2023-03-20T22:29:48;46261.34;;;-144.79;100.00
19827;BME280;10074;52.018;4.726;2023-03-20T22:34:48;46261.34;;;-144.79;100.00
19827;BME280;10074;52.018;4.726;2023-03-20T22:39:48;46257.34;;;-144.79;100.00
19827;BME280;10074;52.018;4.726;2023-03-20T22:44:49;46267.38;;;-144.79;100.00
19827;BME280;10074;52.018;4.726;2023-03-20T22:49:50;46259.34;;;-144.79;100.00
19827;BME280;10074;52.018;4.726;2023-03-20T22:54:50;46255.34;;;-144.79;100.00
19827;BME280;10074;52.018;4.726;2023-03-20T22:59:50;46263.38;;;-144.79;100.00
19827;BME280;10074;52.018;4.726;2023-03-20T23:04:51;46263.38;;;-144.79;100.00
19827;BME280;10074;52.018;4.726;2023-03-20T23:09:53;46259.34;;;-144.79;100.00
19827;BME280;10074;52.018;4.726;2023-03-20T23:14:54;46271.38;;;-144.79;100.00
19827;BME280;10074;52.018;4.726;2023-03-20T23:19:54;46263.38;;;-144.79;100.00
19827;BME280;10074;52.018;4.726;2023-03-20T23:24:55;46261.34;;;-144.79;100.00
19827;BME280;10074;52.018;4.726;2023-03-20T23:29:55;46253.34;;;-144.79;100.00
19827;BME280;10074;52.018;4.726;2023-03-20T23:34:56;46257.34;;;-144.79;100.00
19827;BME280;10074;52.018;4.726;2023-03-20T23:39:56;46253.34;;;-144.79;100.00
19827;BME280;10074;52.018;4.726;2023-03-20T23:44:57;46263.38;;;-144.79;100.00
19827;BME280;10074;52.018;4.726;2023-03-20T23:49:57;46263.38;;;-144.79;100.00
19827;BME280;10074;52.018;4.726;2023-03-20T23:54:57;46263.38;;;-144.79;100.00
19827;BME280;10074;52.018;4.726;2023-03-20T23:59:58;46255.34;;;-144.79;100.00
